AirNav   Everest Fuels
 
 1490 users online  

7IL0 Mussman Airport
Grant Park, Illinois, USA

GOING TO GRANT PARK?


FAA INFORMATION EFFECTIVE 30 DECEMBER 2021

Location

FAA Identifier: 7IL0
Lat/Long: 41-16-15.1230N 087-34-40.1330W
41-16.252050N 087-34.668883W
41.2708675,-87.5778147
(estimated)
Elevation: 705 ft. / 215 m (estimated)
Variation: 01W (1985)
From city: 3 miles NE of GRANT PARK, IL
Time zone: UTC -6 (UTC -5 during Daylight Saving Time)
Zip code: 60940

Airport Operations

Airport use: Private use. Permission required prior to landing
Control tower: no
ARTCC: CHICAGO CENTER
FSS: KANKAKEE FLIGHT SERVICE STATION
Attendance: MON-SAT 0700-1700
Wind indicator: yes
Segmented circle: no

Airport Communications

WX AWOS-AV at C56 (8 nm NW): 119.125 (708-534-5256)
WX AWOS-3 at IGQ (16 nm N): 119.275 (708-895-9526)
WX AWOS-3 at IKK (17 nm SW): 128.475 (815-939-4044)

Nearby radio navigation aids

VOR radial/distance  VOR name  Freq  Var
EONr088/9.6PEOTONE VORTAC113.2002E
CGTr179/14.4CHICAGO HEIGHTS VORTAC114.2002E
JOTr114/37.2JOLIET VOR/DME112.3002E

Airport Services

Powerplant service: NONE

Runway Information

Runway 9/27

Dimensions: 2415 x 75 ft. / 736 x 23 m
Surface: turf
Runway edge lights: low intensity
LOW INTS RY LGTS ON REQUEST, CALL ARPT MGR.
Runway edge markings: DSPLCD THLD MKD WITH ORANGE CONES.
RUNWAY 9  RUNWAY 27
Traffic pattern: leftleft
Displaced threshold: no225 ft.
Obstructions: none15 ft. road

Airport Ownership and Management from official FAA records

Ownership: Privately-owned
Owner: CRAIG MUSSMAN
10250 N 16000 E RD
GRANT PARK, IL 60940
Phone (815) 465-6477
Manager: HECTOR SANOVAL
13509 E 8500 N RD
GRANT PARK, IL 60940
Phone (815) 295-7304

Airport Operational Statistics

Aircraft based on the field: 4
Single engine airplanes: 2
Multi engine airplanes: 1
Gliders airplanes: 1
    

Additional Remarks

ADDITIONAL PH - 815-450-3692
FOR CD CTC CHICAGO ARTCC AT 630-906-8921.

Instrument Procedures

There are no published instrument procedures at 7IL0.

Some nearby airports with instrument procedures:

C56 - Bult Field Airport (8 nm NW)
KIGQ - Lansing Municipal Airport (16 nm N)
05C - Griffith-Merrillville Airport (17 nm NE)
KIKK - Greater Kankakee Airport (17 nm SW)
KGYY - Gary/Chicago International Airport (22 nm N)
 
Loc | Ops | Rwys | IFR | FBO | Links
Com | Nav | Svcs | Stats | Notes
Area around 7IL0 (Mussman Airport)
 
Road maps at: MapQuest Bing Google
 
Aerial photo
No photo
 
Sectional chart

 
Airport distance calculator
Flying to Mussman Airport? Find the distance to fly.

From to 7IL0

Sunrise and sunset
Times for 20-Jan-2022
 Local
(UTC-6)
 Zulu
(UTC)
Morning civil twilight06:4212:42
Sunrise07:1213:12
Sunset16:5122:51
Evening civil twilight17:2123:21

Current date and time
Zulu (UTC)  21-Jan-2022 00:27:22
Local (UTC-6)  20-Jan-2022 18:27:22
 
METAR
KIGQ 
16nm N 
210015Z AUTO 35005KT 10SM CLR M09/M13 A3056 RMK AO2 T10871135
KIKK 
17nm SW 
210017Z AUTO 34005KT 10SM BKN035 M09/M15 A3057 RMK AO2
KGYY 
22nm N 
202345Z 32009KT 10SM SCT025 M08/M12 A3056
KRZL 
26nm SE 
210015Z AUTO 34003KT 10SM OVC043 M08/M11 A3054 RMK AO2
KVPZ 
28nm NE 
202356Z AUTO 36005KT 10SM OVC040 M08/M12 A3053 RMK AO2 SNB15E32 SLP353 P0000 60000 T10781117 11056 21078 53010
KJOT 
30nm NW 
210015Z AUTO 00000KT 10SM CLR M09/M17 A3058 RMK AO2 T10901167
KLOT 
31nm NW 
210010Z AUTO 35005KT 10SM CLR M11/M17 A3057 RMK AO2 T11071171
KMDW 
32nm N 
202353Z 01007KT 10SM FEW030 M08/M17 A3057 RMK AO2 SLP372 T10831172 11056 21083 53009
TAF
KGYY 
22nm N 
202051Z 2021/2118 33010KT P6SM -SHSN BKN025 TEMPO 2021/2024 SCT025 FM211400 20004KT P6SM BKN025
NOTAMs
Click for the latest NOTAMs
NOTAMs are issued by the DoD/FAA and will open in a separate window not controlled by AirNav.

 

 
 

Would you like to see your business listed on this page?

 If your business provides an interesting product or service to pilots, flight crews, aircraft, or users of the Mussman Airport, you should consider listing it here.  To start the listing process, click on the button below
 
Add a business
 

Other Pages about Mussman Airport

Update a link
 
Copyright © AirNav, LLC. All rights reserved. Privacy Policy  Contact